sensor_id;sensor_type;location;lat;lon;timestamp;P1;durP1;ratioP1;P2;durP2;ratioP2
14116;SDS011;7137;51.436;6.544;2022-12-04T00:01:40;35.87;;;22.87;;
14116;SDS011;7137;51.436;6.544;2022-12-04T00:04:42;34.37;;;22.10;;
14116;SDS011;7137;51.436;6.544;2022-12-04T00:07:44;37.83;;;23.07;;
14116;SDS011;7137;51.436;6.544;2022-12-04T00:10:47;37.33;;;23.57;;
14116;SDS011;7137;51.436;6.544;2022-12-04T00:13:48;40.13;;;24.20;;
14116;SDS011;7137;51.436;6.544;2022-12-04T00:16:50;36.03;;;23.27;;
14116;SDS011;7137;51.436;6.544;2022-12-04T00:19:52;36.90;;;23.73;;
14116;SDS011;7137;51.436;6.544;2022-12-04T00:22:54;35.53;;;21.33;;
14116;SDS011;7137;51.436;6.544;2022-12-04T00:25:59;36.27;;;23.37;;
14116;SDS011;7137;51.436;6.544;2022-12-04T00:29:02;39.00;;;24.43;;
14116;SDS011;7137;51.436;6.544;2022-12-04T00:32:04;36.33;;;23.07;;
14116;SDS011;7137;51.436;6.544;2022-12-04T00:35:06;36.40;;;22.40;;
14116;SDS011;7137;51.436;6.544;2022-12-04T00:38:08;37.33;;;24.10;;
14116;SDS011;7137;51.436;6.544;2022-12-04T00:41:12;38.13;;;23.87;;
14116;SDS011;7137;51.436;6.544;2022-12-04T00:44:16;37.17;;;23.07;;
14116;SDS011;7137;51.436;6.544;2022-12-04T00:47:18;35.30;;;20.93;;
14116;SDS011;7137;51.436;6.544;2022-12-04T00:50:20;34.40;;;23.23;;
14116;SDS011;7137;51.436;6.544;2022-12-04T00:53:21;37.07;;;23.33;;
14116;SDS011;7137;51.436;6.544;2022-12-04T00:56:25;39.17;;;24.33;;
14116;SDS011;7137;51.436;6.544;2022-12-04T00:59:27;35.53;;;23.67;;
14116;SDS011;7137;51.436;6.544;2022-12-04T01:02:29;37.93;;;23.13;;
14116;SDS011;7137;51.436;6.544;2022-12-04T01:05:31;37.60;;;23.50;;
14116;SDS011;7137;51.436;6.544;2022-12-04T01:08:38;38.27;;;25.20;;
14116;SDS011;7137;51.436;6.544;2022-12-04T01:11:41;38.27;;;23.27;;
14116;SDS011;7137;51.436;6.544;2022-12-04T01:14:43;39.07;;;22.77;;
14116;SDS011;7137;51.436;6.544;2022-12-04T01:17:44;37.87;;;23.73;;
14116;SDS011;7137;51.436;6.544;2022-12-04T01:20:46;36.80;;;24.00;;
14116;SDS011;7137;51.436;6.544;2022-12-04T01:23:49;40.13;;;24.20;;
14116;SDS011;7137;51.436;6.544;2022-12-04T01:26:52;38.07;;;24.40;;
14116;SDS011;7137;51.436;6.544;2022-12-04T01:29:54;40.83;;;25.10;;
14116;SDS011;7137;51.436;6.544;2022-12-04T01:32:55;37.23;;;23.83;;
14116;SDS011;7137;51.436;6.544;2022-12-04T01:35:57;40.03;;;24.43;;
14116;SDS011;7137;51.436;6.544;2022-12-04T01:39:00;39.23;;;23.97;;
14116;SDS011;7137;51.436;6.544;2022-12-04T01:42:03;41.33;;;26.07;;
14116;SDS011;7137;51.436;6.544;2022-12-04T01:45:30;41.17;;;25.13;;
14116;SDS011;7137;51.436;6.544;2022-12-04T01:48:38;40.73;;;24.97;;
14116;SDS011;7137;51.436;6.544;2022-12-04T01:51:44;41.47;;;25.63;;
14116;SDS011;7137;51.436;6.544;2022-12-04T01:54:50;40.37;;;26.83;;
14116;SDS011;7137;51.436;6.544;2022-12-04T01:57:58;44.20;;;26.00;;
14116;SDS011;7137;51.436;6.544;2022-12-04T02:01:03;41.37;;;26.90;;
14116;SDS011;7137;51.436;6.544;2022-12-04T02:04:06;40.93;;;26.63;;
14116;SDS011;7137;51.436;6.544;2022-12-04T02:07:08;41.57;;;26.07;;
14116;SDS011;7137;51.436;6.544;2022-12-04T02:10:11;44.50;;;27.20;;
14116;SDS011;7137;51.436;6.544;2022-12-04T02:13:20;39.17;;;25.47;;
14116;SDS011;7137;51.436;6.544;2022-12-04T02:16:29;41.73;;;24.10;;
14116;SDS011;7137;51.436;6.544;2022-12-04T02:19:48;43.67;;;26.53;;
14116;SDS011;7137;51.436;6.544;2022-12-04T02:26:32;39.13;;;25.10;;
14116;SDS011;7137;51.436;6.544;2022-12-04T02:29:43;41.33;;;26.47;;
14116;SDS011;7137;51.436;6.544;2022-12-04T02:32:58;42.03;;;27.00;;
14116;SDS011;7137;51.436;6.544;2022-12-04T02:36:05;44.03;;;26.77;;
14116;SDS011;7137;51.436;6.544;2022-12-04T02:39:13;43.40;;;27.27;;
14116;SDS011;7137;51.436;6.544;2022-12-04T02:42:24;43.57;;;27.13;;
14116;SDS011;7137;51.436;6.544;2022-12-04T02:45:36;42.13;;;25.27;;
14116;SDS011;7137;51.436;6.544;2022-12-04T02:48:40;42.63;;;26.33;;
14116;SDS011;7137;51.436;6.544;2022-12-04T02:51:45;43.60;;;27.00;;
14116;SDS011;7137;51.436;6.544;2022-12-04T02:54:50;42.83;;;25.53;;
14116;SDS011;7137;51.436;6.544;2022-12-04T02:57:58;44.47;;;27.50;;
14116;SDS011;7137;51.436;6.544;2022-12-04T03:01:08;39.47;;;21.87;;
14116;SDS011;7137;51.436;6.544;2022-12-04T03:04:18;44.37;;;27.20;;
14116;SDS011;7137;51.436;6.544;2022-12-04T03:07:23;46.70;;;27.90;;
14116;SDS011;7137;51.436;6.544;2022-12-04T03:10:33;44.50;;;27.00;;
14116;SDS011;7137;51.436;6.544;2022-12-04T03:13:39;45.23;;;28.30;;
14116;SDS011;7137;51.436;6.544;2022-12-04T03:16:46;44.20;;;27.17;;
14116;SDS011;7137;51.436;6.544;2022-12-04T03:19:53;45.37;;;26.53;;
14116;SDS011;7137;51.436;6.544;2022-12-04T03:22:59;46.80;;;27.67;;
14116;SDS011;7137;51.436;6.544;2022-12-04T03:26:06;42.80;;;27.37;;
14116;SDS011;7137;51.436;6.544;2022-12-04T03:29:17;43.37;;;26.90;;
14116;SDS011;7137;51.436;6.544;2022-12-04T03:32:23;46.43;;;28.80;;
14116;SDS011;7137;51.436;6.544;2022-12-04T03:35:30;45.47;;;27.80;;
14116;SDS011;7137;51.436;6.544;2022-12-04T03:38:40;42.53;;;26.57;;
14116;SDS011;7137;51.436;6.544;2022-12-04T03:41:52;42.47;;;27.60;;
14116;SDS011;7137;51.436;6.544;2022-12-04T03:45:01;45.40;;;27.70;;
14116;SDS011;7137;51.436;6.544;2022-12-04T03:48:10;43.20;;;27.07;;
14116;SDS011;7137;51.436;6.544;2022-12-04T03:51:20;43.67;;;28.17;;
14116;SDS011;7137;51.436;6.544;2022-12-04T03:54:27;42.13;;;27.20;;
14116;SDS011;7137;51.436;6.544;2022-12-04T03:57:36;43.73;;;28.53;;
14116;SDS011;7137;51.436;6.544;2022-12-04T04:00:41;41.07;;;27.50;;
14116;SDS011;7137;51.436;6.544;2022-12-04T04:03:47;41.43;;;26.63;;
14116;SDS011;7137;51.436;6.544;2022-12-04T04:06:52;38.40;;;25.20;;
14116;SDS011;7137;51.436;6.544;2022-12-04T04:10:00;38.77;;;24.90;;
14116;SDS011;7137;51.436;6.544;2022-12-04T04:13:06;38.53;;;24.20;;
14116;SDS011;7137;51.436;6.544;2022-12-04T04:16:26;39.30;;;23.90;;
14116;SDS011;7137;51.436;6.544;2022-12-04T04:19:51;34.70;;;23.33;;
14116;SDS011;7137;51.436;6.544;2022-12-04T04:23:14;35.60;;;23.30;;
14116;SDS011;7137;51.436;6.544;2022-12-04T04:26:37;34.90;;;22.90;;
14116;SDS011;7137;51.436;6.544;2022-12-04T04:29:43;34.87;;;22.93;;
14116;SDS011;7137;51.436;6.544;2022-12-04T04:32:47;37.77;;;23.77;;
14116;SDS011;7137;51.436;6.544;2022-12-04T04:35:58;33.67;;;22.20;;
14116;SDS011;7137;51.436;6.544;2022-12-04T04:39:06;34.67;;;22.53;;
14116;SDS011;7137;51.436;6.544;2022-12-04T04:42:16;35.20;;;23.00;;
14116;SDS011;7137;51.436;6.544;2022-12-04T04:45:22;31.83;;;21.97;;
14116;SDS011;7137;51.436;6.544;2022-12-04T04:48:33;31.63;;;22.07;;
14116;SDS011;7137;51.436;6.544;2022-12-04T04:51:40;35.77;;;22.70;;
14116;SDS011;7137;51.436;6.544;2022-12-04T04:54:43;31.60;;;21.50;;
14116;SDS011;7137;51.436;6.544;2022-12-04T04:57:46;34.37;;;20.37;;
14116;SDS011;7137;51.436;6.544;2022-12-04T05:00:53;34.73;;;22.33;;
14116;SDS011;7137;51.436;6.544;2022-12-04T05:03:58;32.93;;;20.43;;
14116;SDS011;7137;51.436;6.544;2022-12-04T05:07:01;30.73;;;20.57;;
14116;SDS011;7137;51.436;6.544;2022-12-04T05:10:04;31.80;;;20.80;;
14116;SDS011;7137;51.436;6.544;2022-12-04T05:13:07;32.47;;;21.13;;
14116;SDS011;7137;51.436;6.544;2022-12-04T05:16:10;28.87;;;19.00;;
14116;SDS011;7137;51.436;6.544;2022-12-04T05:19:14;28.47;;;19.70;;
14116;SDS011;7137;51.436;6.544;2022-12-04T05:22:34;30.10;;;19.23;;
14116;SDS011;7137;51.436;6.544;2022-12-04T05:25:36;29.00;;;19.73;;
14116;SDS011;7137;51.436;6.544;2022-12-04T05:28:38;27.20;;;18.17;;
14116;SDS011;7137;51.436;6.544;2022-12-04T05:31:41;31.10;;;19.63;;
14116;SDS011;7137;51.436;6.544;2022-12-04T05:34:42;27.97;;;18.13;;
14116;SDS011;7137;51.436;6.544;2022-12-04T05:37:48;24.67;;;16.70;;
14116;SDS011;7137;51.436;6.544;2022-12-04T05:40:50;25.77;;;17.80;;
14116;SDS011;7137;51.436;6.544;2022-12-04T05:43:51;24.97;;;16.90;;
14116;SDS011;7137;51.436;6.544;2022-12-04T05:46:53;24.53;;;16.60;;
14116;SDS011;7137;51.436;6.544;2022-12-04T05:49:56;22.43;;;15.83;;
14116;SDS011;7137;51.436;6.544;2022-12-04T05:52:58;22.93;;;15.77;;
14116;SDS011;7137;51.436;6.544;2022-12-04T05:56:00;24.20;;;16.13;;
14116;SDS011;7137;51.436;6.544;2022-12-04T05:59:03;23.30;;;15.27;;
14116;SDS011;7137;51.436;6.544;2022-12-04T06:02:04;21.70;;;14.30;;
14116;SDS011;7137;51.436;6.544;2022-12-04T06:05:06;21.40;;;14.43;;
14116;SDS011;7137;51.436;6.544;2022-12-04T06:08:09;21.53;;;14.83;;
14116;SDS011;7137;51.436;6.544;2022-12-04T06:11:11;20.77;;;14.63;;
14116;SDS011;7137;51.436;6.544;2022-12-04T06:14:14;22.67;;;14.20;;
14116;SDS011;7137;51.436;6.544;2022-12-04T06:17:16;21.87;;;14.20;;
14116;SDS011;7137;51.436;6.544;2022-12-04T06:20:17;21.40;;;14.80;;
14116;SDS011;7137;51.436;6.544;2022-12-04T06:23:20;21.40;;;15.23;;
14116;SDS011;7137;51.436;6.544;2022-12-04T06:26:22;24.30;;;15.33;;
14116;SDS011;7137;51.436;6.544;2022-12-04T06:29:25;23.07;;;14.53;;
14116;SDS011;7137;51.436;6.544;2022-12-04T06:32:27;20.97;;;14.23;;
14116;SDS011;7137;51.436;6.544;2022-12-04T06:35:29;22.43;;;14.90;;
14116;SDS011;7137;51.436;6.544;2022-12-04T06:38:32;21.57;;;14.30;;
14116;SDS011;7137;51.436;6.544;2022-12-04T06:41:34;21.90;;;14.43;;
14116;SDS011;7137;51.436;6.544;2022-12-04T06:44:36;23.63;;;14.40;;
14116;SDS011;7137;51.436;6.544;2022-12-04T06:47:37;22.80;;;15.33;;
14116;SDS011;7137;51.436;6.544;2022-12-04T06:50:39;24.03;;;15.20;;
14116;SDS011;7137;51.436;6.544;2022-12-04T06:53:42;23.90;;;15.30;;
14116;SDS011;7137;51.436;6.544;2022-12-04T06:56:44;24.23;;;15.20;;
14116;SDS011;7137;51.436;6.544;2022-12-04T06:59:46;23.23;;;16.07;;
14116;SDS011;7137;51.436;6.544;2022-12-04T07:02:47;24.43;;;15.60;;
14116;SDS011;7137;51.436;6.544;2022-12-04T07:05:49;24.67;;;16.70;;
14116;SDS011;7137;51.436;6.544;2022-12-04T07:08:53;23.83;;;16.27;;
14116;SDS011;7137;51.436;6.544;2022-12-04T07:11:57;24.43;;;16.97;;
14116;SDS011;7137;51.436;6.544;2022-12-04T07:14:59;23.90;;;16.97;;
14116;SDS011;7137;51.436;6.544;2022-12-04T07:18:00;24.73;;;17.67;;
14116;SDS011;7137;51.436;6.544;2022-12-04T07:21:05;26.07;;;19.27;;
14116;SDS011;7137;51.436;6.544;2022-12-04T07:24:10;26.63;;;19.60;;
14116;SDS011;7137;51.436;6.544;2022-12-04T07:27:15;26.10;;;19.07;;
14116;SDS011;7137;51.436;6.544;2022-12-04T07:30:16;23.50;;;16.70;;
14116;SDS011;7137;51.436;6.544;2022-12-04T07:33:18;23.57;;;17.43;;
14116;SDS011;7137;51.436;6.544;2022-12-04T07:36:21;25.70;;;17.70;;
14116;SDS011;7137;51.436;6.544;2022-12-04T07:39:24;24.67;;;17.27;;
14116;SDS011;7137;51.436;6.544;2022-12-04T07:42:27;23.00;;;17.00;;
14116;SDS011;7137;51.436;6.544;2022-12-04T07:45:29;21.20;;;15.83;;
14116;SDS011;7137;51.436;6.544;2022-12-04T07:48:31;23.87;;;17.00;;
14116;SDS011;7137;51.436;6.544;2022-12-04T07:51:32;21.13;;;16.23;;
14116;SDS011;7137;51.436;6.544;2022-12-04T07:54:36;22.33;;;16.50;;
14116;SDS011;7137;51.436;6.544;2022-12-04T07:57:38;21.87;;;15.90;;
14116;SDS011;7137;51.436;6.544;2022-12-04T08:00:39;21.03;;;15.63;;
14116;SDS011;7137;51.436;6.544;2022-12-04T08:03:41;20.83;;;15.70;;
14116;SDS011;7137;51.436;6.544;2022-12-04T08:06:45;22.27;;;15.13;;
14116;SDS011;7137;51.436;6.544;2022-12-04T08:09:49;20.20;;;14.47;;
14116;SDS011;7137;51.436;6.544;2022-12-04T08:12:50;19.23;;;14.20;;
14116;SDS011;7137;51.436;6.544;2022-12-04T08:15:52;20.70;;;14.63;;
14116;SDS011;7137;51.436;6.544;2022-12-04T08:18:55;19.13;;;13.63;;
14116;SDS011;7137;51.436;6.544;2022-12-04T08:21:58;21.63;;;12.97;;
14116;SDS011;7137;51.436;6.544;2022-12-04T08:25:01;20.47;;;15.10;;
14116;SDS011;7137;51.436;6.544;2022-12-04T08:28:02;19.70;;;14.57;;
14116;SDS011;7137;51.436;6.544;2022-12-04T08:31:04;20.97;;;14.50;;
14116;SDS011;7137;51.436;6.544;2022-12-04T08:34:08;19.50;;;14.10;;
14116;SDS011;7137;51.436;6.544;2022-12-04T08:37:09;18.60;;;13.90;;
14116;SDS011;7137;51.436;6.544;2022-12-04T08:40:13;17.87;;;13.23;;
14116;SDS011;7137;51.436;6.544;2022-12-04T08:43:15;18.93;;;14.47;;
14116;SDS011;7137;51.436;6.544;2022-12-04T08:46:16;20.70;;;14.33;;
14116;SDS011;7137;51.436;6.544;2022-12-04T08:49:19;19.87;;;13.47;;
14116;SDS011;7137;51.436;6.544;2022-12-04T08:52:21;17.37;;;13.27;;
14116;SDS011;7137;51.436;6.544;2022-12-04T08:55:24;17.77;;;12.87;;
14116;SDS011;7137;51.436;6.544;2022-12-04T08:58:26;19.77;;;14.13;;
14116;SDS011;7137;51.436;6.544;2022-12-04T09:01:28;18.30;;;13.17;;
14116;SDS011;7137;51.436;6.544;2022-12-04T09:04:30;17.53;;;13.07;;
14116;SDS011;7137;51.436;6.544;2022-12-04T09:07:31;19.40;;;13.90;;
14116;SDS011;7137;51.436;6.544;2022-12-04T09:10:34;18.30;;;12.87;;
14116;SDS011;7137;51.436;6.544;2022-12-04T09:13:36;18.73;;;13.30;;
14116;SDS011;7137;51.436;6.544;2022-12-04T09:16:39;19.60;;;14.87;;
14116;SDS011;7137;51.436;6.544;2022-12-04T09:19:41;19.17;;;13.53;;
14116;SDS011;7137;51.436;6.544;2022-12-04T09:22:43;20.47;;;13.90;;
14116;SDS011;7137;51.436;6.544;2022-12-04T09:25:46;19.40;;;13.50;;
14116;SDS011;7137;51.436;6.544;2022-12-04T09:28:48;21.03;;;15.10;;
14116;SDS011;7137;51.436;6.544;2022-12-04T09:31:50;20.23;;;14.37;;
14116;SDS011;7137;51.436;6.544;2022-12-04T09:34:52;18.07;;;13.83;;
14116;SDS011;7137;51.436;6.544;2022-12-04T09:37:54;19.17;;;13.30;;
14116;SDS011;7137;51.436;6.544;2022-12-04T09:40:58;19.27;;;13.70;;
14116;SDS011;7137;51.436;6.544;2022-12-04T09:44:07;20.67;;;14.07;;
14116;SDS011;7137;51.436;6.544;2022-12-04T09:47:17;19.50;;;14.43;;
14116;SDS011;7137;51.436;6.544;2022-12-04T09:50:23;19.03;;;14.10;;
14116;SDS011;7137;51.436;6.544;2022-12-04T09:53:29;19.10;;;13.93;;
14116;SDS011;7137;51.436;6.544;2022-12-04T09:56:42;19.30;;;13.17;;
14116;SDS011;7137;51.436;6.544;2022-12-04T09:59:46;19.03;;;14.03;;
14116;SDS011;7137;51.436;6.544;2022-12-04T10:02:51;19.13;;;13.57;;
14116;SDS011;7137;51.436;6.544;2022-12-04T10:06:01;19.00;;;13.67;;
14116;SDS011;7137;51.436;6.544;2022-12-04T10:09:12;17.77;;;12.53;;
14116;SDS011;7137;51.436;6.544;2022-12-04T10:12:22;19.63;;;14.50;;
14116;SDS011;7137;51.436;6.544;2022-12-04T10:15:33;19.03;;;13.93;;
14116;SDS011;7137;51.436;6.544;2022-12-04T10:18:43;19.10;;;14.00;;
14116;SDS011;7137;51.436;6.544;2022-12-04T10:21:55;20.60;;;14.47;;
14116;SDS011;7137;51.436;6.544;2022-12-04T10:25:04;19.33;;;14.43;;
14116;SDS011;7137;51.436;6.544;2022-12-04T10:28:18;19.97;;;15.33;;
14116;SDS011;7137;51.436;6.544;2022-12-04T10:31:24;20.30;;;15.07;;
14116;SDS011;7137;51.436;6.544;2022-12-04T10:34:28;20.17;;;14.30;;
14116;SDS011;7137;51.436;6.544;2022-12-04T10:37:32;18.90;;;14.13;;
14116;SDS011;7137;51.436;6.544;2022-12-04T10:40:42;20.23;;;14.67;;
14116;SDS011;7137;51.436;6.544;2022-12-04T10:43:49;20.60;;;14.97;;
14116;SDS011;7137;51.436;6.544;2022-12-04T10:46:52;19.93;;;14.53;;
14116;SDS011;7137;51.436;6.544;2022-12-04T10:49:59;20.43;;;13.70;;
14116;SDS011;7137;51.436;6.544;2022-12-04T10:53:13;20.97;;;14.00;;
14116;SDS011;7137;51.436;6.544;2022-12-04T10:56:17;20.00;;;13.57;;
14116;SDS011;7137;51.436;6.544;2022-12-04T10:59:21;18.90;;;13.13;;
14116;SDS011;7137;51.436;6.544;2022-12-04T11:02:23;21.20;;;14.57;;
14116;SDS011;7137;51.436;6.544;2022-12-04T11:05:28;19.73;;;14.67;;
14116;SDS011;7137;51.436;6.544;2022-12-04T11:08:34;21.07;;;13.80;;
14116;SDS011;7137;51.436;6.544;2022-12-04T11:11:38;19.83;;;13.50;;
14116;SDS011;7137;51.436;6.544;2022-12-04T11:14:42;22.63;;;15.73;;
14116;SDS011;7137;51.436;6.544;2022-12-04T11:17:43;21.57;;;15.27;;
14116;SDS011;7137;51.436;6.544;2022-12-04T11:20:49;21.33;;;14.23;;
14116;SDS011;7137;51.436;6.544;2022-12-04T11:23:52;21.07;;;14.77;;
14116;SDS011;7137;51.436;6.544;2022-12-04T11:26:55;22.17;;;15.73;;
14116;SDS011;7137;51.436;6.544;2022-12-04T11:30:01;22.80;;;15.97;;
14116;SDS011;7137;51.436;6.544;2022-12-04T11:33:13;22.90;;;15.40;;
14116;SDS011;7137;51.436;6.544;2022-12-04T11:36:18;21.83;;;15.20;;
14116;SDS011;7137;51.436;6.544;2022-12-04T11:39:24;21.77;;;15.20;;
14116;SDS011;7137;51.436;6.544;2022-12-04T11:42:31;22.17;;;15.50;;
14116;SDS011;7137;51.436;6.544;2022-12-04T11:45:34;20.63;;;14.63;;
14116;SDS011;7137;51.436;6.544;2022-12-04T11:48:40;22.07;;;15.70;;
14116;SDS011;7137;51.436;6.544;2022-12-04T11:51:45;22.33;;;15.67;;
14116;SDS011;7137;51.436;6.544;2022-12-04T11:54:58;21.60;;;16.00;;
14116;SDS011;7137;51.436;6.544;2022-12-04T11:58:11;20.27;;;15.27;;
14116;SDS011;7137;51.436;6.544;2022-12-04T12:01:31;22.33;;;15.83;;
14116;SDS011;7137;51.436;6.544;2022-12-04T12:04:45;21.80;;;16.00;;
14116;SDS011;7137;51.436;6.544;2022-12-04T12:07:56;21.60;;;15.90;;
14116;SDS011;7137;51.436;6.544;2022-12-04T12:11:06;22.37;;;16.17;;
14116;SDS011;7137;51.436;6.544;2022-12-04T12:14:18;23.10;;;15.63;;
14116;SDS011;7137;51.436;6.544;2022-12-04T12:17:31;22.73;;;16.10;;
14116;SDS011;7137;51.436;6.544;2022-12-04T12:20:40;22.00;;;16.00;;
14116;SDS011;7137;51.436;6.544;2022-12-04T12:24:00;23.80;;;16.53;;
14116;SDS011;7137;51.436;6.544;2022-12-04T12:27:15;22.00;;;16.90;;
14116;SDS011;7137;51.436;6.544;2022-12-04T12:30:33;22.50;;;16.43;;
14116;SDS011;7137;51.436;6.544;2022-12-04T12:33:43;22.87;;;15.83;;
14116;SDS011;7137;51.436;6.544;2022-12-04T12:36:51;24.20;;;16.80;;
14116;SDS011;7137;51.436;6.544;2022-12-04T12:39:56;22.73;;;15.17;;
14116;SDS011;7137;51.436;6.544;2022-12-04T12:43:03;21.40;;;15.70;;
14116;SDS011;7137;51.436;6.544;2022-12-04T12:46:09;23.80;;;16.50;;
14116;SDS011;7137;51.436;6.544;2022-12-04T12:49:18;21.63;;;15.90;;
14116;SDS011;7137;51.436;6.544;2022-12-04T12:52:26;22.93;;;16.20;;
14116;SDS011;7137;51.436;6.544;2022-12-04T12:55:34;21.47;;;16.20;;
14116;SDS011;7137;51.436;6.544;2022-12-04T12:58:42;21.07;;;15.83;;
14116;SDS011;7137;51.436;6.544;2022-12-04T13:01:48;21.27;;;15.23;;
14116;SDS011;7137;51.436;6.544;2022-12-04T13:04:57;21.87;;;16.27;;
14116;SDS011;7137;51.436;6.544;2022-12-04T13:08:04;20.60;;;14.83;;
14116;SDS011;7137;51.436;6.544;2022-12-04T13:11:12;20.80;;;15.30;;
14116;SDS011;7137;51.436;6.544;2022-12-04T13:14:16;22.00;;;15.53;;
14116;SDS011;7137;51.436;6.544;2022-12-04T13:17:19;21.03;;;15.40;;
14116;SDS011;7137;51.436;6.544;2022-12-04T13:20:30;22.37;;;15.23;;
14116;SDS011;7137;51.436;6.544;2022-12-04T13:23:42;20.83;;;14.83;;
14116;SDS011;7137;51.436;6.544;2022-12-04T13:26:52;21.43;;;15.07;;
14116;SDS011;7137;51.436;6.544;2022-12-04T13:30:04;21.20;;;14.90;;
14116;SDS011;7137;51.436;6.544;2022-12-04T13:33:32;24.13;;;15.83;;
14116;SDS011;7137;51.436;6.544;2022-12-04T13:36:57;21.93;;;15.70;;
14116;SDS011;7137;51.436;6.544;2022-12-04T13:40:29;21.67;;;16.60;;
14116;SDS011;7137;51.436;6.544;2022-12-04T13:43:34;21.33;;;14.60;;
14116;SDS011;7137;51.436;6.544;2022-12-04T13:46:47;20.13;;;15.53;;
14116;SDS011;7137;51.436;6.544;2022-12-04T13:50:04;20.53;;;15.17;;
14116;SDS011;7137;51.436;6.544;2022-12-04T13:56:31;22.70;;;16.00;;
14116;SDS011;7137;51.436;6.544;2022-12-04T13:59:34;21.03;;;15.13;;
14116;SDS011;7137;51.436;6.544;2022-12-04T14:02:38;22.87;;;16.20;;
14116;SDS011;7137;51.436;6.544;2022-12-04T14:05:49;22.13;;;16.10;;
14116;SDS011;7137;51.436;6.544;2022-12-04T14:08:57;20.07;;;15.37;;
14116;SDS011;7137;51.436;6.544;2022-12-04T14:12:01;21.33;;;15.63;;
14116;SDS011;7137;51.436;6.544;2022-12-04T14:15:04;21.20;;;16.20;;
14116;SDS011;7137;51.436;6.544;2022-12-04T14:18:15;23.27;;;16.47;;
14116;SDS011;7137;51.436;6.544;2022-12-04T14:21:20;20.67;;;16.00;;
14116;SDS011;7137;51.436;6.544;2022-12-04T14:24:31;20.17;;;15.53;;
14116;SDS011;7137;51.436;6.544;2022-12-04T14:27:41;20.30;;;14.73;;
14116;SDS011;7137;51.436;6.544;2022-12-04T14:31:00;18.40;;;15.13;;
14116;SDS011;7137;51.436;6.544;2022-12-04T14:34:19;20.53;;;15.87;;
14116;SDS011;7137;51.436;6.544;2022-12-04T14:37:24;24.17;;;18.47;;
14116;SDS011;7137;51.436;6.544;2022-12-04T14:40:32;24.87;;;18.97;;
14116;SDS011;7137;51.436;6.544;2022-12-04T14:43:38;23.00;;;18.90;;
14116;SDS011;7137;51.436;6.544;2022-12-04T14:46:41;25.47;;;20.23;;
14116;SDS011;7137;51.436;6.544;2022-12-04T14:49:49;25.70;;;20.97;;
14116;SDS011;7137;51.436;6.544;2022-12-04T14:53:11;23.80;;;18.83;;
14116;SDS011;7137;51.436;6.544;2022-12-04T14:56:26;23.23;;;18.47;;
14116;SDS011;7137;51.436;6.544;2022-12-04T14:59:42;22.30;;;17.83;;
14116;SDS011;7137;51.436;6.544;2022-12-04T15:02:46;21.33;;;16.67;;
14116;SDS011;7137;51.436;6.544;2022-12-04T15:05:49;21.10;;;17.40;;
14116;SDS011;7137;51.436;6.544;2022-12-04T15:08:52;22.47;;;17.10;;
14116;SDS011;7137;51.436;6.544;2022-12-04T15:12:19;21.83;;;17.20;;
14116;SDS011;7137;51.436;6.544;2022-12-04T15:15:33;22.93;;;18.17;;
14116;SDS011;7137;51.436;6.544;2022-12-04T15:18:36;20.20;;;16.40;;
14116;SDS011;7137;51.436;6.544;2022-12-04T15:21:51;17.83;;;15.07;;
14116;SDS011;7137;51.436;6.544;2022-12-04T15:24:53;19.23;;;15.20;;
14116;SDS011;7137;51.436;6.544;2022-12-04T15:28:01;19.43;;;15.60;;
14116;SDS011;7137;51.436;6.544;2022-12-04T15:31:09;21.67;;;17.60;;
14116;SDS011;7137;51.436;6.544;2022-12-04T15:34:14;22.73;;;18.13;;
14116;SDS011;7137;51.436;6.544;2022-12-04T15:37:19;24.37;;;18.77;;
14116;SDS011;7137;51.436;6.544;2022-12-04T15:40:24;24.70;;;20.40;;
14116;SDS011;7137;51.436;6.544;2022-12-04T15:43:29;25.73;;;20.53;;
14116;SDS011;7137;51.436;6.544;2022-12-04T15:46:32;24.33;;;19.50;;
14116;SDS011;7137;51.436;6.544;2022-12-04T15:49:37;26.13;;;21.13;;
14116;SDS011;7137;51.436;6.544;2022-12-04T15:52:46;27.23;;;21.23;;
14116;SDS011;7137;51.436;6.544;2022-12-04T15:55:50;27.10;;;21.23;;
14116;SDS011;7137;51.436;6.544;2022-12-04T15:58:56;26.10;;;21.47;;
14116;SDS011;7137;51.436;6.544;2022-12-04T16:02:02;26.83;;;22.60;;
14116;SDS011;7137;51.436;6.544;2022-12-04T16:05:11;26.87;;;22.30;;
14116;SDS011;7137;51.436;6.544;2022-12-04T16:08:23;27.70;;;21.83;;
14116;SDS011;7137;51.436;6.544;2022-12-04T16:11:30;41.47;;;36.13;;
14116;SDS011;7137;51.436;6.544;2022-12-04T16:14:34;28.60;;;22.03;;
14116;SDS011;7137;51.436;6.544;2022-12-04T16:17:36;35.67;;;27.73;;
14116;SDS011;7137;51.436;6.544;2022-12-04T16:20:38;40.07;;;28.47;;
14116;SDS011;7137;51.436;6.544;2022-12-04T16:23:40;120.87;;;84.17;;
14116;SDS011;7137;51.436;6.544;2022-12-04T16:26:42;29.13;;;22.30;;
14116;SDS011;7137;51.436;6.544;2022-12-04T16:29:46;27.53;;;22.30;;
14116;SDS011;7137;51.436;6.544;2022-12-04T16:32:49;30.57;;;23.13;;
14116;SDS011;7137;51.436;6.544;2022-12-04T16:35:52;28.57;;;23.00;;
14116;SDS011;7137;51.436;6.544;2022-12-04T16:38:53;29.90;;;22.80;;
14116;SDS011;7137;51.436;6.544;2022-12-04T16:41:55;29.60;;;22.27;;
14116;SDS011;7137;51.436;6.544;2022-12-04T16:44:58;29.77;;;23.13;;
14116;SDS011;7137;51.436;6.544;2022-12-04T16:48:00;30.27;;;22.53;;
14116;SDS011;7137;51.436;6.544;2022-12-04T16:51:02;30.33;;;23.20;;
14116;SDS011;7137;51.436;6.544;2022-12-04T16:54:03;31.80;;;22.50;;
14116;SDS011;7137;51.436;6.544;2022-12-04T16:57:05;31.20;;;22.77;;
14116;SDS011;7137;51.436;6.544;2022-12-04T17:00:11;29.63;;;21.67;;
14116;SDS011;7137;51.436;6.544;2022-12-04T17:03:15;33.47;;;22.90;;
14116;SDS011;7137;51.436;6.544;2022-12-04T17:06:18;33.47;;;23.93;;
14116;SDS011;7137;51.436;6.544;2022-12-04T17:09:20;32.70;;;24.03;;
14116;SDS011;7137;51.436;6.544;2022-12-04T17:12:22;34.47;;;25.10;;
14116;SDS011;7137;51.436;6.544;2022-12-04T17:15:25;37.57;;;25.87;;
14116;SDS011;7137;51.436;6.544;2022-12-04T17:18:26;33.03;;;24.23;;
14116;SDS011;7137;51.436;6.544;2022-12-04T17:21:28;33.80;;;25.97;;
14116;SDS011;7137;51.436;6.544;2022-12-04T17:24:30;37.33;;;27.47;;
14116;SDS011;7137;51.436;6.544;2022-12-04T17:27:32;34.70;;;26.73;;
14116;SDS011;7137;51.436;6.544;2022-12-04T17:30:35;33.00;;;24.77;;
14116;SDS011;7137;51.436;6.544;2022-12-04T17:33:37;34.87;;;24.90;;
14116;SDS011;7137;51.436;6.544;2022-12-04T17:36:38;33.43;;;23.87;;
14116;SDS011;7137;51.436;6.544;2022-12-04T17:39:41;35.63;;;24.03;;
14116;SDS011;7137;51.436;6.544;2022-12-04T17:42:43;33.27;;;25.17;;
14116;SDS011;7137;51.436;6.544;2022-12-04T17:45:46;34.37;;;24.43;;
14116;SDS011;7137;51.436;6.544;2022-12-04T17:48:47;35.13;;;25.13;;
14116;SDS011;7137;51.436;6.544;2022-12-04T17:51:51;35.77;;;25.50;;
14116;SDS011;7137;51.436;6.544;2022-12-04T17:54:53;33.77;;;23.50;;
14116;SDS011;7137;51.436;6.544;2022-12-04T17:57:55;35.10;;;24.07;;
14116;SDS011;7137;51.436;6.544;2022-12-04T18:01:01;35.10;;;24.03;;
14116;SDS011;7137;51.436;6.544;2022-12-04T18:04:06;32.90;;;24.17;;
14116;SDS011;7137;51.436;6.544;2022-12-04T18:07:09;31.63;;;23.90;;
14116;SDS011;7137;51.436;6.544;2022-12-04T18:10:10;33.10;;;24.77;;
14116;SDS011;7137;51.436;6.544;2022-12-04T18:13:13;34.10;;;24.70;;
14116;SDS011;7137;51.436;6.544;2022-12-04T18:16:16;34.90;;;24.37;;
14116;SDS011;7137;51.436;6.544;2022-12-04T18:19:18;33.27;;;23.77;;
14116;SDS011;7137;51.436;6.544;2022-12-04T18:22:21;37.77;;;26.67;;
14116;SDS011;7137;51.436;6.544;2022-12-04T18:25:23;35.67;;;24.83;;
14116;SDS011;7137;51.436;6.544;2022-12-04T18:28:25;42.67;;;32.93;;